createdAt,value
2023-03-27T00:01:17.793Z,0.40
2023-03-27T00:03:44.890Z,0.40
2023-03-27T00:06:17.156Z,0.50
2023-03-27T00:08:50.606Z,0.57
2023-03-27T00:11:17.591Z,0.47
2023-03-27T00:13:50.445Z,0.38
2023-03-27T00:16:22.058Z,0.60
2023-03-27T00:18:49.080Z,0.68
2023-03-27T00:21:15.752Z,0.40
2023-03-27T00:23:42.439Z,0.45
2023-03-27T00:26:09.091Z,0.50
2023-03-27T00:28:36.433Z,0.73
2023-03-27T00:31:03.516Z,0.43
2023-03-27T00:33:30.060Z,0.65
2023-03-27T00:35:56.776Z,0.63
2023-03-27T00:38:24.320Z,0.55
2023-03-27T00:40:53.593Z,0.50
2023-03-27T00:43:22.377Z,0.73
2023-03-27T00:45:52.699Z,0.47
2023-03-27T00:48:20.694Z,0.50
2023-03-27T00:50:49.222Z,0.93
2023-03-27T00:53:22.026Z,0.60
2023-03-27T00:55:51.667Z,0.70
2023-03-27T00:58:23.160Z,0.70
2023-03-27T01:00:52.771Z,0.40
2023-03-27T01:03:21.412Z,0.50
2023-03-27T01:05:50.288Z,0.60
2023-03-27T01:08:17.350Z,0.68
2023-03-27T01:10:49.915Z,0.55
2023-03-27T01:13:40.450Z,0.60
2023-03-27T01:16:10.059Z,0.68
2023-03-27T01:18:53.697Z,0.45
2023-03-27T01:21:38.696Z,0.50
2023-03-27T01:24:30.749Z,0.50
2023-03-27T01:27:02.382Z,0.63
2023-03-27T01:29:38.487Z,0.55
2023-03-27T01:32:38.822Z,0.35
2023-03-27T01:35:20.185Z,0.50
2023-03-27T01:37:50.351Z,0.50
2023-03-27T01:43:09.769Z,0.40
2023-03-27T01:45:52.527Z,0.47
2023-03-27T01:48:30.503Z,0.70
2023-03-27T01:51:01.939Z,0.50
2023-03-27T01:53:39.872Z,0.45
2023-03-27T01:56:26.708Z,0.40
2023-03-27T01:59:04.016Z,0.57
2023-03-27T02:01:37.570Z,0.40
2023-03-27T02:04:09.379Z,0.40
2023-03-27T02:06:44.742Z,0.70
2023-03-27T02:09:22.871Z,0.60
2023-03-27T02:12:07.348Z,1.13
2023-03-27T02:14:40.298Z,0.70
2023-03-27T02:17:10.861Z,0.55
2023-03-27T02:19:46.569Z,0.55
2023-03-27T02:22:14.706Z,0.60
2023-03-27T02:24:43.347Z,0.50
2023-03-27T02:27:22.272Z,0.98
2023-03-27T02:30:00.023Z,0.47
2023-03-27T02:32:58.268Z,0.50
2023-03-27T02:35:36.865Z,0.40
2023-03-27T02:38:19.198Z,0.65
2023-03-27T02:41:01.734Z,0.50
2023-03-27T02:43:55.947Z,0.73
2023-03-27T02:46:41.410Z,0.50
2023-03-27T02:49:13.958Z,0.80
2023-03-27T02:51:45.575Z,0.50
2023-03-27T02:54:17.081Z,0.60
2023-03-27T02:56:49.623Z,0.98
2023-03-27T02:59:22.497Z,0.63
2023-03-27T03:01:49.831Z,0.52
2023-03-27T03:04:31.082Z,0.77
2023-03-27T03:06:58.913Z,0.75
2023-03-27T03:09:25.548Z,0.70
2023-03-27T03:11:53.718Z,0.50
2023-03-27T03:14:31.018Z,1.00
2023-03-27T03:16:57.581Z,1.10
2023-03-27T03:19:24.173Z,1.05
2023-03-27T03:21:50.807Z,1.05
2023-03-27T03:24:17.680Z,1.23
2023-03-27T03:26:45.225Z,1.15
2023-03-27T03:29:14.217Z,0.77
2023-03-27T03:31:43.795Z,0.70
2023-03-27T03:34:16.402Z,1.38
2023-03-27T03:36:44.928Z,0.60
2023-03-27T03:39:12.669Z,0.85
2023-03-27T03:41:39.442Z,0.80
2023-03-27T03:44:05.990Z,1.30
2023-03-27T03:46:32.699Z,0.88
2023-03-27T03:48:59.568Z,0.88
2023-03-27T03:51:26.458Z,0.82
2023-03-27T03:53:53.093Z,0.65
2023-03-27T03:56:19.643Z,0.60
2023-03-27T03:58:46.110Z,0.82
2023-03-27T04:01:12.667Z,0.68
2023-03-27T04:03:39.490Z,1.10
2023-03-27T04:06:07.388Z,0.80
2023-03-27T04:08:35.004Z,0.65
2023-03-27T04:11:01.618Z,0.68
2023-03-27T04:13:28.121Z,0.68
2023-03-27T04:15:55.456Z,0.75
2023-03-27T04:18:24.641Z,0.70
2023-03-27T04:20:51.313Z,0.73
2023-03-27T04:23:20.311Z,0.70
2023-03-27T04:25:47.380Z,0.90
2023-03-27T04:28:17.452Z,1.00
2023-03-27T04:33:30.591Z,1.17
2023-03-27T04:36:06.853Z,1.15
2023-03-27T04:38:38.129Z,1.10
2023-03-27T04:41:06.127Z,0.80
2023-03-27T04:43:36.574Z,1.20
2023-03-27T04:46:06.436Z,1.10
2023-03-27T04:48:33.619Z,1.27
2023-03-27T04:51:00.173Z,1.10
2023-03-27T04:53:30.308Z,1.15
2023-03-27T04:55:57.278Z,1.42
2023-03-27T04:58:25.756Z,1.60
2023-03-27T05:00:56.061Z,1.73
2023-03-27T05:03:27.778Z,1.33
2023-03-27T05:05:54.418Z,1.50
2023-03-27T05:08:20.977Z,1.45
2023-03-27T05:10:47.528Z,1.67
2023-03-27T05:13:14.622Z,1.20
2023-03-27T05:15:41.522Z,0.98
2023-03-27T05:18:09.231Z,1.80
2023-03-27T05:20:37.022Z,1.30
2023-03-27T05:23:03.965Z,1.10
2023-03-27T05:25:31.701Z,1.10
2023-03-27T05:27:59.778Z,1.10
2023-03-27T05:30:26.970Z,1.23
2023-03-27T05:32:53.939Z,1.20
2023-03-27T05:35:23.282Z,0.90
2023-03-27T05:37:52.828Z,1.20
2023-03-27T05:40:22.483Z,1.17
2023-03-27T05:42:51.140Z,1.20
2023-03-27T05:45:18.382Z,1.10
2023-03-27T05:47:46.157Z,1.13
2023-03-27T05:50:14.367Z,1.08
2023-03-27T05:52:41.632Z,1.58
2023-03-27T05:55:09.082Z,1.70
2023-03-27T05:57:39.886Z,1.70
2023-03-27T06:00:13.526Z,1.70
2023-03-27T06:02:43.394Z,1.08
2023-03-27T06:05:15.176Z,3.70
2023-03-27T06:07:43.472Z,4.55
2023-03-27T06:10:13.406Z,5.70
2023-03-27T06:12:41.835Z,3.63
2023-03-27T06:15:10.110Z,1.65
2023-03-27T06:17:39.187Z,0.88
2023-03-27T06:20:12.022Z,0.50
2023-03-27T06:22:44.171Z,0.68
2023-03-27T06:25:10.752Z,0.68
2023-03-27T06:27:38.040Z,0.50
2023-03-27T06:30:05.324Z,0.50
2023-03-27T06:32:31.860Z,0.70
2023-03-27T06:34:58.375Z,0.50
2023-03-27T06:37:25.080Z,0.57
2023-03-27T06:39:52.060Z,0.60
2023-03-27T06:42:18.615Z,0.65
2023-03-27T06:44:45.141Z,0.80
2023-03-27T06:47:12.722Z,0.90
2023-03-27T06:49:39.375Z,0.70
2023-03-27T06:52:06.888Z,0.95
2023-03-27T06:54:33.725Z,1.30
2023-03-27T06:57:01.593Z,0.77
2023-03-27T06:59:28.138Z,0.95
2023-03-27T07:01:54.711Z,0.70
2023-03-27T07:04:21.318Z,1.65
2023-03-27T07:06:49.019Z,0.90
2023-03-27T07:09:15.673Z,1.00
2023-03-27T07:11:42.533Z,0.95
2023-03-27T07:14:09.265Z,1.08
2023-03-27T07:16:36.006Z,1.10
2023-03-27T07:19:05.511Z,0.98
2023-03-27T07:21:32.146Z,0.93
2023-03-27T07:23:58.701Z,0.98
2023-03-27T07:26:25.528Z,0.82
2023-03-27T07:28:52.068Z,0.70
2023-03-27T07:33:48.365Z,0.90
2023-03-27T07:36:14.970Z,0.93
2023-03-27T07:38:42.166Z,1.02
2023-03-27T07:41:09.256Z,0.88
2023-03-27T07:43:35.905Z,0.80
2023-03-27T07:46:05.985Z,0.73
2023-03-27T07:51:10.644Z,1.00
2023-03-27T07:56:08.736Z,0.70
2023-03-27T07:58:35.411Z,0.70
2023-03-27T08:01:02.870Z,1.17
2023-03-27T08:03:30.814Z,1.35
2023-03-27T08:05:59.935Z,1.40
2023-03-27T08:08:27.142Z,0.90
2023-03-27T08:10:58.176Z,1.25
2023-03-27T08:13:24.954Z,1.30
2023-03-27T08:15:51.548Z,2.38
2023-03-27T08:18:18.234Z,2.00
2023-03-27T08:20:45.682Z,1.40
2023-03-27T08:23:12.309Z,4.68
2023-03-27T08:25:38.869Z,2.05
2023-03-27T08:28:05.471Z,1.70
2023-03-27T08:30:32.312Z,1.77
2023-03-27T08:33:00.230Z,1.55
2023-03-27T08:35:27.005Z,2.00
2023-03-27T08:37:54.051Z,1.88
2023-03-27T08:40:28.159Z,1.63
2023-03-27T08:42:58.656Z,1.52
2023-03-27T08:45:37.218Z,2.13
2023-03-27T08:48:15.780Z,2.00
2023-03-27T08:50:49.563Z,1.80
2023-03-27T08:53:53.994Z,2.22
2023-03-27T08:56:21.113Z,1.60
2023-03-27T08:58:48.669Z,2.40
2023-03-27T09:01:26.382Z,2.63
2023-03-27T09:04:20.871Z,1.92
2023-03-27T09:06:48.184Z,1.75
2023-03-27T09:09:27.155Z,2.40
2023-03-27T09:12:24.823Z,2.77
2023-03-27T09:15:05.084Z,2.20
2023-03-27T09:17:40.438Z,2.78
2023-03-27T09:20:30.057Z,2.20
2023-03-27T09:23:05.497Z,2.42
2023-03-27T09:25:38.024Z,2.53
2023-03-27T09:28:29.809Z,2.10
2023-03-27T09:30:57.351Z,2.03
2023-03-27T09:33:25.512Z,1.95
2023-03-27T09:35:52.153Z,1.73
2023-03-27T09:38:21.948Z,1.83
2023-03-27T09:40:54.780Z,2.30
2023-03-27T09:43:26.389Z,1.80
2023-03-27T09:45:54.892Z,1.55
2023-03-27T09:48:31.936Z,1.83
2023-03-27T09:50:58.647Z,2.30
2023-03-27T09:53:27.862Z,1.65
2023-03-27T09:56:05.401Z,2.38
2023-03-27T09:58:40.132Z,4.00
2023-03-27T10:01:15.640Z,3.92
2023-03-27T10:03:48.891Z,3.35
2023-03-27T10:06:26.281Z,1.65
2023-03-27T10:08:55.390Z,1.58
2023-03-27T10:11:32.796Z,1.75
2023-03-27T10:14:02.096Z,1.80
2023-03-27T10:16:30.015Z,1.30
2023-03-27T10:18:59.922Z,1.88
2023-03-27T10:21:33.857Z,1.52
2023-03-27T10:24:06.507Z,1.95
2023-03-27T10:26:37.136Z,1.80
2023-03-27T10:29:21.980Z,1.90
2023-03-27T10:31:52.016Z,2.53
2023-03-27T10:36:55.357Z,1.90
2023-03-27T10:39:27.845Z,1.50
2023-03-27T10:41:54.770Z,1.25
2023-03-27T10:44:25.788Z,1.25
2023-03-27T10:46:53.369Z,1.65
2023-03-27T10:49:39.795Z,1.42
2023-03-27T10:52:47.283Z,1.52
2023-03-27T10:55:41.560Z,1.40
2023-03-27T10:58:22.179Z,1.35
2023-03-27T11:00:55.943Z,1.33
2023-03-27T11:03:35.153Z,1.80
2023-03-27T11:06:05.523Z,1.23
2023-03-27T11:09:05.179Z,1.80
2023-03-27T11:11:47.267Z,1.45
2023-03-27T11:14:40.776Z,1.15
2023-03-27T11:17:10.325Z,1.80
2023-03-27T11:19:55.895Z,2.03
2023-03-27T11:22:32.565Z,1.60
2023-03-27T11:25:07.327Z,1.80
2023-03-27T11:27:45.617Z,1.58
2023-03-27T11:30:50.736Z,1.38
2023-03-27T11:33:42.716Z,2.10
2023-03-27T11:36:34.489Z,2.03
2023-03-27T11:39:27.213Z,1.50
2023-03-27T11:42:00.256Z,1.95
2023-03-27T11:44:30.370Z,1.95
2023-03-27T11:49:35.005Z,1.77
2023-03-27T11:52:26.211Z,1.38
2023-03-27T11:55:32.578Z,1.40
2023-03-27T11:58:32.168Z,1.15
2023-03-27T12:01:27.094Z,1.55
2023-03-27T12:04:21.760Z,1.55
2023-03-27T12:07:18.787Z,1.08
2023-03-27T12:10:00.465Z,1.10
2023-03-27T12:12:51.383Z,1.20
2023-03-27T12:15:39.494Z,1.48
2023-03-27T12:21:54.038Z,1.20
2023-03-27T12:24:59.670Z,1.45
2023-03-27T12:28:00.125Z,1.55
2023-03-27T12:31:09.507Z,1.65
2023-03-27T12:33:50.687Z,1.40
2023-03-27T12:36:22.377Z,1.88
2023-03-27T12:38:49.072Z,2.22
2023-03-27T12:41:28.753Z,1.20
2023-03-27T12:43:57.913Z,1.48
2023-03-27T12:46:24.471Z,1.63
2023-03-27T12:49:06.172Z,1.73
2023-03-27T12:51:51.118Z,1.73
2023-03-27T12:54:26.548Z,0.60
2023-03-27T12:57:22.374Z,1.02
2023-03-27T12:59:48.975Z,1.27
2023-03-27T13:02:16.078Z,1.10
2023-03-27T13:05:01.392Z,1.00
2023-03-27T13:07:57.667Z,1.38
2023-03-27T13:10:41.680Z,1.13
2023-03-27T13:13:38.045Z,2.53
2023-03-27T13:16:04.626Z,0.80
2023-03-27T13:18:55.475Z,1.00
2023-03-27T13:21:51.260Z,1.38
2023-03-27T13:24:42.397Z,1.60
2023-03-27T13:27:21.660Z,1.50
2023-03-27T13:32:38.917Z,1.80
2023-03-27T13:35:05.623Z,0.88
2023-03-27T13:37:36.423Z,1.33
2023-03-27T13:40:24.739Z,1.00
2023-03-27T13:42:55.348Z,0.85
2023-03-27T13:45:49.731Z,1.88
2023-03-27T13:48:53.933Z,3.38
2023-03-27T13:51:45.126Z,2.58
2023-03-27T13:54:40.487Z,1.50
2023-03-27T13:57:48.621Z,1.00
2023-03-27T14:00:50.091Z,0.90
2023-03-27T14:03:37.825Z,0.90
2023-03-27T14:06:29.153Z,0.70
2023-03-27T14:09:16.005Z,0.73
2023-03-27T14:12:10.444Z,0.80
2023-03-27T14:14:49.492Z,1.30
2023-03-27T14:18:06.920Z,1.13
2023-03-27T14:20:45.310Z,1.10
2023-03-27T14:23:28.512Z,1.35
2023-03-27T14:26:03.437Z,0.98
2023-03-27T14:28:31.723Z,1.20
2023-03-27T14:31:03.817Z,1.50
2023-03-27T14:33:30.868Z,0.80
2023-03-27T14:36:04.009Z,0.70
2023-03-27T14:38:35.627Z,1.10
2023-03-27T14:41:17.022Z,0.85
2023-03-27T14:43:51.524Z,0.80
2023-03-27T14:46:23.287Z,1.17
2023-03-27T14:48:54.498Z,1.05
2023-03-27T14:51:27.080Z,1.10
2023-03-27T14:54:02.123Z,0.80
2023-03-27T14:56:37.067Z,0.85
2023-03-27T14:59:07.799Z,0.63
2023-03-27T15:01:35.107Z,0.82
2023-03-27T15:04:03.277Z,0.60
2023-03-27T15:06:36.290Z,0.85
2023-03-27T15:09:05.635Z,0.85
2023-03-27T15:11:38.470Z,0.73
2023-03-27T15:14:06.207Z,0.80
2023-03-27T15:16:35.848Z,0.93
2023-03-27T15:19:13.949Z,0.90
2023-03-27T15:21:50.973Z,2.17
2023-03-27T15:24:44.968Z,0.90
2023-03-27T15:27:27.155Z,1.15
2023-03-27T15:29:57.652Z,1.55
2023-03-27T15:32:30.812Z,1.10
2023-03-27T15:35:03.369Z,1.10
2023-03-27T15:37:31.836Z,0.90
2023-03-27T15:40:13.253Z,0.80
2023-03-27T15:42:51.675Z,0.77
2023-03-27T15:45:21.496Z,0.98
2023-03-27T15:48:00.973Z,0.90
2023-03-27T15:50:28.088Z,1.00
2023-03-27T15:52:58.160Z,0.65
2023-03-27T15:58:00.184Z,1.20
2023-03-27T16:00:28.861Z,0.88
2023-03-27T16:02:55.847Z,0.88
2023-03-27T16:05:22.954Z,1.00
2023-03-27T16:07:49.642Z,0.93
2023-03-27T16:10:36.382Z,0.88
2023-03-27T16:13:04.097Z,0.60
2023-03-27T16:15:41.111Z,0.93
2023-03-27T16:18:17.380Z,1.08
2023-03-27T16:20:44.677Z,1.27
2023-03-27T16:23:11.153Z,1.00
2023-03-27T16:25:38.088Z,0.95
2023-03-27T16:28:08.962Z,0.93
2023-03-27T16:30:39.098Z,1.42
2023-03-27T16:35:44.209Z,0.90
2023-03-27T16:38:11.843Z,0.93
2023-03-27T16:40:38.368Z,1.00
2023-03-27T16:43:04.934Z,1.10
2023-03-27T16:45:32.047Z,0.98
2023-03-27T16:50:27.578Z,1.20
2023-03-27T16:52:54.057Z,1.90
2023-03-27T16:55:20.981Z,1.38
2023-03-27T16:57:47.877Z,1.45
2023-03-27T17:00:16.021Z,1.33
2023-03-27T17:02:44.362Z,1.20
2023-03-27T17:05:11.282Z,1.00
2023-03-27T17:10:05.185Z,1.10
2023-03-27T17:12:32.307Z,1.10
2023-03-27T17:14:58.893Z,1.08
2023-03-27T17:17:27.491Z,1.10
2023-03-27T17:19:54.354Z,0.90
2023-03-27T17:22:21.492Z,0.98
2023-03-27T17:24:56.081Z,0.88
2023-03-27T17:27:25.788Z,1.00
2023-03-27T17:29:52.302Z,1.50
2023-03-27T17:32:18.814Z,0.98
2023-03-27T17:34:45.716Z,3.00
2023-03-27T17:37:12.576Z,2.88
2023-03-27T17:39:39.624Z,2.50
2023-03-27T17:42:06.623Z,3.25
2023-03-27T17:44:33.202Z,2.50
2023-03-27T17:54:20.717Z,1.60
2023-03-27T17:56:47.250Z,1.60
2023-03-27T17:59:13.756Z,2.10
2023-03-27T18:01:40.455Z,2.28
2023-03-27T18:04:07.197Z,2.70
2023-03-27T18:06:33.924Z,2.40
2023-03-27T18:09:00.423Z,2.70
2023-03-27T18:11:29.141Z,2.22
2023-03-27T18:13:55.838Z,2.22
2023-03-27T18:16:23.064Z,2.33
2023-03-27T18:18:51.060Z,2.88
2023-03-27T18:21:17.576Z,2.53
2023-03-27T18:23:45.969Z,3.28
2023-03-27T18:26:13.211Z,4.05
2023-03-27T18:28:39.775Z,5.07
2023-03-27T18:31:08.992Z,3.70
2023-03-27T18:33:36.577Z,1.90
2023-03-27T18:36:05.993Z,2.70
2023-03-27T18:38:32.651Z,2.25
2023-03-27T18:40:59.991Z,2.13
2023-03-27T18:43:26.823Z,2.00
2023-03-27T18:46:02.774Z,2.42
2023-03-27T18:48:31.103Z,5.50
2023-03-27T18:51:03.270Z,5.88
2023-03-27T18:53:30.323Z,3.28
2023-03-27T18:55:58.585Z,2.17
2023-03-27T18:58:27.601Z,1.70
2023-03-27T19:00:56.786Z,2.03
2023-03-27T19:03:26.337Z,2.53
2023-03-27T19:05:53.264Z,2.35
2023-03-27T19:08:20.898Z,2.38
2023-03-27T19:10:47.522Z,2.20
2023-03-27T19:13:14.029Z,1.75
2023-03-27T19:15:41.872Z,1.90
2023-03-27T19:18:09.285Z,2.20
2023-03-27T19:20:36.403Z,2.45
2023-03-27T19:23:03.240Z,2.85
2023-03-27T19:25:30.044Z,2.20
2023-03-27T19:27:56.546Z,1.90
2023-03-27T19:30:23.429Z,2.47
2023-03-27T19:32:51.256Z,1.88
2023-03-27T19:35:19.426Z,2.13
2023-03-27T19:37:46.631Z,2.35
2023-03-27T19:40:13.818Z,1.88
2023-03-27T19:42:40.590Z,2.65
2023-03-27T19:45:07.607Z,2.17
2023-03-27T19:47:34.330Z,2.70
2023-03-27T19:50:01.162Z,2.55
2023-03-27T19:52:27.725Z,1.95
2023-03-27T19:54:55.008Z,2.00
2023-03-27T19:57:22.077Z,2.20
2023-03-27T19:59:48.567Z,2.17
2023-03-27T20:02:15.440Z,2.17
2023-03-27T20:04:42.008Z,2.28
2023-03-27T20:07:10.001Z,2.65
2023-03-27T20:09:36.662Z,2.42
2023-03-27T20:12:04.764Z,2.10
2023-03-27T20:14:31.355Z,2.25
2023-03-27T20:16:57.916Z,2.50
2023-03-27T20:19:28.573Z,2.08
2023-03-27T20:21:55.412Z,2.53
2023-03-27T20:24:21.990Z,2.03
2023-03-27T20:26:51.430Z,2.72
2023-03-27T20:29:20.991Z,2.85
2023-03-27T20:31:48.070Z,2.75
2023-03-27T20:34:15.026Z,2.42
2023-03-27T20:36:43.380Z,2.28
2023-03-27T20:39:14.178Z,2.53
2023-03-27T20:41:40.783Z,3.58
2023-03-27T20:44:15.583Z,3.20
2023-03-27T20:46:51.338Z,2.67
2023-03-27T20:49:39.775Z,2.70
2023-03-27T20:52:12.751Z,2.55
2023-03-27T20:54:39.583Z,2.83
2023-03-27T20:57:06.565Z,3.00
2023-03-27T20:59:33.600Z,2.70
2023-03-27T21:02:00.933Z,2.40
2023-03-27T21:04:28.668Z,3.00
2023-03-27T21:06:55.782Z,3.22
2023-03-27T21:09:24.077Z,2.90
2023-03-27T21:11:51.054Z,2.42
2023-03-27T21:14:17.617Z,3.08
2023-03-27T21:16:44.232Z,2.92
2023-03-27T21:19:11.917Z,2.70
2023-03-27T21:21:39.134Z,3.55
2023-03-27T21:24:06.426Z,2.63
2023-03-27T21:26:33.536Z,3.15
2023-03-27T21:29:00.351Z,3.15
2023-03-27T21:31:26.940Z,3.00
2023-03-27T21:33:53.483Z,2.80
2023-03-27T21:36:20.645Z,2.72
2023-03-27T21:38:47.546Z,2.83
2023-03-27T21:41:16.208Z,2.97
2023-03-27T21:43:43.131Z,3.08
2023-03-27T21:46:09.871Z,2.80
2023-03-27T21:48:36.436Z,3.30
2023-03-27T21:51:05.737Z,2.85
2023-03-27T21:53:32.548Z,2.50
2023-03-27T21:55:59.299Z,2.83
2023-03-27T21:58:26.757Z,3.00
2023-03-27T22:00:56.145Z,2.63
2023-03-27T22:03:22.786Z,2.28
2023-03-27T22:06:00.990Z,3.08
2023-03-27T22:08:27.965Z,2.22
2023-03-27T22:10:58.367Z,3.13
2023-03-27T22:13:24.958Z,2.70
2023-03-27T22:15:51.746Z,2.30
2023-03-27T22:18:18.803Z,2.85
2023-03-27T22:20:45.332Z,2.67
2023-03-27T22:23:11.962Z,2.97
2023-03-27T22:25:38.452Z,3.40
2023-03-27T22:28:05.218Z,1.90
2023-03-27T22:30:32.018Z,3.50
2023-03-27T22:32:58.669Z,2.20
2023-03-27T22:35:25.270Z,3.00
2023-03-27T22:37:51.889Z,2.72
2023-03-27T22:40:18.429Z,3.20
2023-03-27T22:42:44.874Z,3.10
2023-03-27T22:45:11.587Z,3.42
2023-03-27T22:47:38.106Z,3.05
2023-03-27T22:50:06.445Z,2.90
2023-03-27T22:52:33.284Z,2.75
2023-03-27T22:54:59.982Z,3.10
2023-03-27T22:57:26.528Z,2.40
2023-03-27T22:59:53.126Z,3.00
2023-03-27T23:02:19.946Z,2.97
2023-03-27T23:04:46.517Z,2.88
2023-03-27T23:07:13.082Z,2.92
2023-03-27T23:09:39.579Z,3.13
2023-03-27T23:12:06.180Z,3.10
2023-03-27T23:14:32.921Z,2.40
2023-03-27T23:17:00.503Z,3.13
2023-03-27T23:19:27.069Z,3.10
2023-03-27T23:21:53.585Z,3.25
2023-03-27T23:24:20.124Z,3.53
2023-03-27T23:26:46.662Z,3.88
2023-03-27T23:29:13.209Z,3.08
2023-03-27T23:31:39.788Z,3.45
2023-03-27T23:34:06.344Z,3.30
2023-03-27T23:36:32.897Z,3.10
2023-03-27T23:38:59.435Z,3.42
2023-03-27T23:41:26.097Z,3.10
2023-03-27T23:43:53.929Z,3.10
2023-03-27T23:46:20.502Z,3.22
2023-03-27T23:48:47.030Z,3.50
2023-03-27T23:51:15.303Z,3.33
2023-03-27T23:53:42.146Z,3.67
2023-03-27T23:56:09.155Z,3.33
2023-03-27T23:58:37.222Z,3.95
